Saint Augusta, Minnesota
Current Conditions -  °F | °C
As of 8:55 PM on Friday 21 Nov 2014 (Local Time) from KMGG Reporting Station
Clear Clear  
Wind Chill: 21°   Ceiling: Unl
Heat Index: 29°   Visibility: 10mi
Dew Point: 25°   Wind: 9mph
Humidity: 83%   Direction: 170°S
Pressure: 29.87"   Gusts: NA
Location:  45.3547°N, 94.3058°W
Report Text: KMGG 220255Z AUTO 17008KT 10SM CLR M01/M04 A2987 RMK AO2 T10151041
Loading
Personal Weather Stations






























Interactive Weather Map New forecast layout! Learn more

10-Day Weather Forecast

Advertisements
Track Severe Weather on mobile